sensor_id;sensor_type;location;lat;lon;timestamp;P1;durP1;ratioP1;P2;durP2;ratioP2
17985;SDS011;9118;48.122;11.546;2023-02-28T00:01:10;9.30;;;4.30;;
17985;SDS011;9118;48.122;11.546;2023-02-28T00:03:40;7.23;;;4.50;;
17985;SDS011;9118;48.122;11.546;2023-02-28T00:06:08;6.40;;;4.20;;
17985;SDS011;9118;48.122;11.546;2023-02-28T00:08:35;8.20;;;4.50;;
17985;SDS011;9118;48.122;11.546;2023-02-28T00:11:02;6.33;;;4.40;;
17985;SDS011;9118;48.122;11.546;2023-02-28T00:13:31;5.80;;;4.53;;
17985;SDS011;9118;48.122;11.546;2023-02-28T00:16:00;8.17;;;4.23;;
17985;SDS011;9118;48.122;11.546;2023-02-28T00:18:28;11.50;;;4.80;;
17985;SDS011;9118;48.122;11.546;2023-02-28T00:20:57;8.67;;;4.60;;
17985;SDS011;9118;48.122;11.546;2023-02-28T00:23:25;6.77;;;4.50;;
17985;SDS011;9118;48.122;11.546;2023-02-28T00:25:52;10.20;;;5.40;;
17985;SDS011;9118;48.122;11.546;2023-02-28T00:28:19;7.23;;;4.60;;
17985;SDS011;9118;48.122;11.546;2023-02-28T00:30:46;10.20;;;4.60;;
17985;SDS011;9118;48.122;11.546;2023-02-28T00:33:14;7.93;;;4.47;;
17985;SDS011;9118;48.122;11.546;2023-02-28T00:35:41;6.13;;;4.40;;
17985;SDS011;9118;48.122;11.546;2023-02-28T00:38:12;7.47;;;4.17;;
17985;SDS011;9118;48.122;11.546;2023-02-28T00:40:39;9.50;;;5.10;;
17985;SDS011;9118;48.122;11.546;2023-02-28T00:43:06;7.53;;;4.57;;
17985;SDS011;9118;48.122;11.546;2023-02-28T00:45:33;14.40;;;5.27;;
17985;SDS011;9118;48.122;11.546;2023-02-28T00:48:00;6.87;;;4.30;;
17985;SDS011;9118;48.122;11.546;2023-02-28T00:50:27;10.30;;;4.83;;
17985;SDS011;9118;48.122;11.546;2023-02-28T00:52:55;7.37;;;4.70;;
17985;SDS011;9118;48.122;11.546;2023-02-28T00:55:23;6.80;;;4.13;;
17985;SDS011;9118;48.122;11.546;2023-02-28T00:57:50;6.60;;;4.70;;
17985;SDS011;9118;48.122;11.546;2023-02-28T01:00:18;6.53;;;4.53;;
17985;SDS011;9118;48.122;11.546;2023-02-28T01:02:45;7.43;;;4.67;;
17985;SDS011;9118;48.122;11.546;2023-02-28T01:05:12;7.83;;;4.70;;
17985;SDS011;9118;48.122;11.546;2023-02-28T01:07:39;6.70;;;4.63;;
17985;SDS011;9118;48.122;11.546;2023-02-28T01:10:06;9.90;;;4.70;;
17985;SDS011;9118;48.122;11.546;2023-02-28T01:12:36;6.70;;;4.43;;
17985;SDS011;9118;48.122;11.546;2023-02-28T01:15:03;8.57;;;4.80;;
17985;SDS011;9118;48.122;11.546;2023-02-28T01:17:31;22.63;;;5.90;;
17985;SDS011;9118;48.122;11.546;2023-02-28T01:19:58;8.63;;;4.70;;
17985;SDS011;9118;48.122;11.546;2023-02-28T01:22:28;8.90;;;5.10;;
17985;SDS011;9118;48.122;11.546;2023-02-28T01:24:55;9.10;;;4.97;;
17985;SDS011;9118;48.122;11.546;2023-02-28T01:27:22;6.90;;;4.53;;
17985;SDS011;9118;48.122;11.546;2023-02-28T01:29:51;9.67;;;4.63;;
17985;SDS011;9118;48.122;11.546;2023-02-28T01:32:18;7.83;;;4.97;;
17985;SDS011;9118;48.122;11.546;2023-02-28T01:34:45;6.37;;;4.60;;
17985;SDS011;9118;48.122;11.546;2023-02-28T01:37:12;9.20;;;5.37;;
17985;SDS011;9118;48.122;11.546;2023-02-28T01:39:39;7.60;;;4.70;;
17985;SDS011;9118;48.122;11.546;2023-02-28T01:42:07;8.33;;;5.10;;
17985;SDS011;9118;48.122;11.546;2023-02-28T01:44:57;14.37;;;5.50;;
17985;SDS011;9118;48.122;11.546;2023-02-28T01:47:30;9.83;;;5.30;;
17985;SDS011;9118;48.122;11.546;2023-02-28T01:49:59;9.97;;;4.80;;
17985;SDS011;9118;48.122;11.546;2023-02-28T01:52:28;8.53;;;5.13;;
17985;SDS011;9118;48.122;11.546;2023-02-28T01:54:56;6.27;;;4.50;;
17985;SDS011;9118;48.122;11.546;2023-02-28T01:57:27;7.20;;;4.97;;
17985;SDS011;9118;48.122;11.546;2023-02-28T02:00:05;6.97;;;5.00;;
17985;SDS011;9118;48.122;11.546;2023-02-28T02:02:35;8.60;;;4.83;;
17985;SDS011;9118;48.122;11.546;2023-02-28T02:05:05;7.97;;;5.07;;
17985;SDS011;9118;48.122;11.546;2023-02-28T02:07:34;12.70;;;5.20;;
17985;SDS011;9118;48.122;11.546;2023-02-28T02:10:04;6.83;;;5.10;;
17985;SDS011;9118;48.122;11.546;2023-02-28T02:12:37;9.63;;;5.13;;
17985;SDS011;9118;48.122;11.546;2023-02-28T02:15:20;8.43;;;5.00;;
17985;SDS011;9118;48.122;11.546;2023-02-28T02:17:53;12.87;;;5.37;;
17985;SDS011;9118;48.122;11.546;2023-02-28T02:20:32;26.67;;;6.13;;
17985;SDS011;9118;48.122;11.546;2023-02-28T02:26:28;6.90;;;4.90;;
17985;SDS011;9118;48.122;11.546;2023-02-28T02:29:19;7.97;;;5.30;;
17985;SDS011;9118;48.122;11.546;2023-02-28T02:32:10;9.77;;;5.43;;
17985;SDS011;9118;48.122;11.546;2023-02-28T02:35:06;7.17;;;4.83;;
17985;SDS011;9118;48.122;11.546;2023-02-28T02:37:40;7.83;;;5.07;;
17985;SDS011;9118;48.122;11.546;2023-02-28T02:40:13;7.93;;;5.07;;
17985;SDS011;9118;48.122;11.546;2023-02-28T02:42:45;11.57;;;5.60;;
17985;SDS011;9118;48.122;11.546;2023-02-28T02:45:17;7.93;;;4.90;;
17985;SDS011;9118;48.122;11.546;2023-02-28T02:47:49;8.03;;;4.77;;
17985;SDS011;9118;48.122;11.546;2023-02-28T02:50:21;8.93;;;5.87;;
17985;SDS011;9118;48.122;11.546;2023-02-28T02:52:54;7.20;;;5.27;;
17985;SDS011;9118;48.122;11.546;2023-02-28T02:55:23;9.13;;;5.57;;
17985;SDS011;9118;48.122;11.546;2023-02-28T02:57:52;6.83;;;5.00;;
17985;SDS011;9118;48.122;11.546;2023-02-28T03:00:23;8.73;;;5.00;;
17985;SDS011;9118;48.122;11.546;2023-02-28T03:02:53;9.10;;;5.23;;
17985;SDS011;9118;48.122;11.546;2023-02-28T03:05:24;8.43;;;5.20;;
17985;SDS011;9118;48.122;11.546;2023-02-28T03:07:53;7.97;;;5.20;;
17985;SDS011;9118;48.122;11.546;2023-02-28T03:10:28;7.77;;;5.17;;
17985;SDS011;9118;48.122;11.546;2023-02-28T03:13:18;8.67;;;5.50;;
17985;SDS011;9118;48.122;11.546;2023-02-28T03:16:20;9.83;;;5.63;;
17985;SDS011;9118;48.122;11.546;2023-02-28T03:18:57;10.13;;;5.73;;
17985;SDS011;9118;48.122;11.546;2023-02-28T03:21:37;8.97;;;5.63;;
17985;SDS011;9118;48.122;11.546;2023-02-28T03:24:10;12.93;;;5.47;;
17985;SDS011;9118;48.122;11.546;2023-02-28T03:26:41;9.87;;;5.60;;
17985;SDS011;9118;48.122;11.546;2023-02-28T03:29:12;9.13;;;5.80;;
17985;SDS011;9118;48.122;11.546;2023-02-28T03:31:48;9.33;;;5.80;;
17985;SDS011;9118;48.122;11.546;2023-02-28T03:34:19;8.03;;;5.47;;
17985;SDS011;9118;48.122;11.546;2023-02-28T03:36:55;8.63;;;5.57;;
17985;SDS011;9118;48.122;11.546;2023-02-28T03:39:26;9.83;;;5.50;;
17985;SDS011;9118;48.122;11.546;2023-02-28T03:42:05;12.13;;;6.23;;
17985;SDS011;9118;48.122;11.546;2023-02-28T03:44:36;11.73;;;5.60;;
17985;SDS011;9118;48.122;11.546;2023-02-28T03:47:07;7.70;;;5.50;;
17985;SDS011;9118;48.122;11.546;2023-02-28T03:49:39;8.60;;;5.93;;
17985;SDS011;9118;48.122;11.546;2023-02-28T03:52:11;10.23;;;6.30;;
17985;SDS011;9118;48.122;11.546;2023-02-28T03:54:39;12.60;;;6.53;;
17985;SDS011;9118;48.122;11.546;2023-02-28T03:57:11;9.93;;;5.73;;
17985;SDS011;9118;48.122;11.546;2023-02-28T03:59:47;8.30;;;5.97;;
17985;SDS011;9118;48.122;11.546;2023-02-28T04:02:19;10.07;;;6.17;;
17985;SDS011;9118;48.122;11.546;2023-02-28T04:04:46;10.23;;;6.23;;
17985;SDS011;9118;48.122;11.546;2023-02-28T04:07:15;10.37;;;6.23;;
17985;SDS011;9118;48.122;11.546;2023-02-28T04:09:43;11.90;;;6.57;;
17985;SDS011;9118;48.122;11.546;2023-02-28T04:12:11;9.77;;;6.53;;
17985;SDS011;9118;48.122;11.546;2023-02-28T04:14:38;12.23;;;6.70;;
17985;SDS011;9118;48.122;11.546;2023-02-28T04:17:05;11.70;;;7.00;;
17985;SDS011;9118;48.122;11.546;2023-02-28T04:19:32;11.23;;;6.73;;
17985;SDS011;9118;48.122;11.546;2023-02-28T04:21:59;11.47;;;6.63;;
17985;SDS011;9118;48.122;11.546;2023-02-28T04:24:28;12.27;;;6.80;;
17985;SDS011;9118;48.122;11.546;2023-02-28T04:26:56;11.60;;;7.00;;
17985;SDS011;9118;48.122;11.546;2023-02-28T04:29:24;14.30;;;7.07;;
17985;SDS011;9118;48.122;11.546;2023-02-28T04:31:54;11.17;;;7.07;;
17985;SDS011;9118;48.122;11.546;2023-02-28T04:34:22;11.43;;;7.30;;
17985;SDS011;9118;48.122;11.546;2023-02-28T04:36:50;24.07;;;8.67;;
17985;SDS011;9118;48.122;11.546;2023-02-28T04:39:22;10.73;;;6.83;;
17985;SDS011;9118;48.122;11.546;2023-02-28T04:41:51;10.63;;;6.70;;
17985;SDS011;9118;48.122;11.546;2023-02-28T04:44:18;11.30;;;7.30;;
17985;SDS011;9118;48.122;11.546;2023-02-28T04:46:47;10.93;;;7.27;;
17985;SDS011;9118;48.122;11.546;2023-02-28T04:49:15;16.27;;;8.30;;
17985;SDS011;9118;48.122;11.546;2023-02-28T04:51:42;12.17;;;7.00;;
17985;SDS011;9118;48.122;11.546;2023-02-28T04:54:09;15.47;;;7.53;;
17985;SDS011;9118;48.122;11.546;2023-02-28T04:56:36;14.60;;;8.27;;
17985;SDS011;9118;48.122;11.546;2023-02-28T04:59:04;15.87;;;8.33;;
17985;SDS011;9118;48.122;11.546;2023-02-28T05:01:31;14.47;;;8.53;;
17985;SDS011;9118;48.122;11.546;2023-02-28T05:04:01;14.73;;;8.43;;
17985;SDS011;9118;48.122;11.546;2023-02-28T05:06:31;17.43;;;9.13;;
17985;SDS011;9118;48.122;11.546;2023-02-28T05:08:59;16.57;;;8.63;;
17985;SDS011;9118;48.122;11.546;2023-02-28T05:11:27;14.50;;;8.40;;
17985;SDS011;9118;48.122;11.546;2023-02-28T05:13:59;16.73;;;9.03;;
17985;SDS011;9118;48.122;11.546;2023-02-28T05:16:28;17.37;;;8.77;;
17985;SDS011;9118;48.122;11.546;2023-02-28T05:18:55;17.47;;;9.00;;
17985;SDS011;9118;48.122;11.546;2023-02-28T05:21:23;17.17;;;8.87;;
17985;SDS011;9118;48.122;11.546;2023-02-28T05:23:52;17.67;;;9.13;;
17985;SDS011;9118;48.122;11.546;2023-02-28T05:26:20;16.17;;;9.07;;
17985;SDS011;9118;48.122;11.546;2023-02-28T05:28:47;15.27;;;8.73;;
17985;SDS011;9118;48.122;11.546;2023-02-28T05:31:14;16.73;;;8.50;;
17985;SDS011;9118;48.122;11.546;2023-02-28T05:33:42;15.47;;;9.13;;
17985;SDS011;9118;48.122;11.546;2023-02-28T05:36:09;16.30;;;9.07;;
17985;SDS011;9118;48.122;11.546;2023-02-28T05:38:36;17.93;;;9.17;;
17985;SDS011;9118;48.122;11.546;2023-02-28T05:41:07;16.57;;;9.40;;
17985;SDS011;9118;48.122;11.546;2023-02-28T05:43:35;19.37;;;9.43;;
17985;SDS011;9118;48.122;11.546;2023-02-28T05:46:03;19.50;;;9.77;;
17985;SDS011;9118;48.122;11.546;2023-02-28T05:48:32;18.07;;;9.13;;
17985;SDS011;9118;48.122;11.546;2023-02-28T05:51:00;23.13;;;10.13;;
17985;SDS011;9118;48.122;11.546;2023-02-28T05:53:29;18.33;;;9.90;;
17985;SDS011;9118;48.122;11.546;2023-02-28T05:55:56;16.37;;;9.97;;
17985;SDS011;9118;48.122;11.546;2023-02-28T05:58:24;20.43;;;10.87;;
17985;SDS011;9118;48.122;11.546;2023-02-28T06:00:55;21.70;;;11.07;;
17985;SDS011;9118;48.122;11.546;2023-02-28T06:03:23;23.60;;;11.53;;
17985;SDS011;9118;48.122;11.546;2023-02-28T06:05:50;17.70;;;10.57;;
17985;SDS011;9118;48.122;11.546;2023-02-28T06:08:19;19.07;;;11.10;;
17985;SDS011;9118;48.122;11.546;2023-02-28T06:10:46;34.17;;;11.70;;
17985;SDS011;9118;48.122;11.546;2023-02-28T06:13:13;26.10;;;12.37;;
17985;SDS011;9118;48.122;11.546;2023-02-28T06:15:40;28.53;;;12.47;;
17985;SDS011;9118;48.122;11.546;2023-02-28T06:18:07;16.93;;;10.43;;
17985;SDS011;9118;48.122;11.546;2023-02-28T06:20:34;29.80;;;12.23;;
17985;SDS011;9118;48.122;11.546;2023-02-28T06:23:01;24.27;;;11.63;;
17985;SDS011;9118;48.122;11.546;2023-02-28T06:25:29;22.73;;;12.80;;
17985;SDS011;9118;48.122;11.546;2023-02-28T06:27:56;28.07;;;12.00;;
17985;SDS011;9118;48.122;11.546;2023-02-28T06:30:24;25.03;;;12.13;;
17985;SDS011;9118;48.122;11.546;2023-02-28T06:32:52;28.70;;;11.80;;
17985;SDS011;9118;48.122;11.546;2023-02-28T06:35:22;23.77;;;12.53;;
17985;SDS011;9118;48.122;11.546;2023-02-28T06:37:49;24.13;;;12.10;;
17985;SDS011;9118;48.122;11.546;2023-02-28T06:40:17;26.63;;;13.27;;
17985;SDS011;9118;48.122;11.546;2023-02-28T06:42:45;26.00;;;11.73;;
17985;SDS011;9118;48.122;11.546;2023-02-28T06:45:12;22.93;;;12.57;;
17985;SDS011;9118;48.122;11.546;2023-02-28T06:47:40;20.37;;;11.43;;
17985;SDS011;9118;48.122;11.546;2023-02-28T06:50:09;21.40;;;12.60;;
17985;SDS011;9118;48.122;11.546;2023-02-28T06:52:37;26.30;;;12.50;;
17985;SDS011;9118;48.122;11.546;2023-02-28T06:55:06;25.27;;;12.80;;
17985;SDS011;9118;48.122;11.546;2023-02-28T06:57:35;25.63;;;13.27;;
17985;SDS011;9118;48.122;11.546;2023-02-28T07:00:05;23.60;;;12.80;;
17985;SDS011;9118;48.122;11.546;2023-02-28T07:02:34;29.67;;;12.50;;
17985;SDS011;9118;48.122;11.546;2023-02-28T07:05:02;27.50;;;13.87;;
17985;SDS011;9118;48.122;11.546;2023-02-28T07:07:30;28.87;;;16.43;;
17985;SDS011;9118;48.122;11.546;2023-02-28T07:09:57;25.10;;;12.93;;
17985;SDS011;9118;48.122;11.546;2023-02-28T07:12:25;30.57;;;14.13;;
17985;SDS011;9118;48.122;11.546;2023-02-28T07:14:52;31.77;;;14.80;;
17985;SDS011;9118;48.122;11.546;2023-02-28T07:17:23;27.63;;;12.60;;
17985;SDS011;9118;48.122;11.546;2023-02-28T07:19:52;28.37;;;13.57;;
17985;SDS011;9118;48.122;11.546;2023-02-28T07:22:24;33.73;;;13.13;;
17985;SDS011;9118;48.122;11.546;2023-02-28T07:24:54;32.73;;;13.20;;
17985;SDS011;9118;48.122;11.546;2023-02-28T07:27:21;38.73;;;14.37;;
17985;SDS011;9118;48.122;11.546;2023-02-28T07:29:52;25.60;;;13.57;;
17985;SDS011;9118;48.122;11.546;2023-02-28T07:32:22;34.00;;;14.10;;
17985;SDS011;9118;48.122;11.546;2023-02-28T07:34:50;39.60;;;14.63;;
17985;SDS011;9118;48.122;11.546;2023-02-28T07:37:17;38.50;;;15.00;;
17985;SDS011;9118;48.122;11.546;2023-02-28T07:39:44;23.77;;;13.33;;
17985;SDS011;9118;48.122;11.546;2023-02-28T07:42:13;32.03;;;14.77;;
17985;SDS011;9118;48.122;11.546;2023-02-28T07:44:40;24.93;;;13.03;;
17985;SDS011;9118;48.122;11.546;2023-02-28T07:47:07;24.50;;;13.60;;
17985;SDS011;9118;48.122;11.546;2023-02-28T07:49:37;41.47;;;14.73;;
17985;SDS011;9118;48.122;11.546;2023-02-28T07:52:05;23.53;;;14.37;;
17985;SDS011;9118;48.122;11.546;2023-02-28T07:54:33;24.60;;;14.20;;
17985;SDS011;9118;48.122;11.546;2023-02-28T07:57:00;30.90;;;13.70;;
17985;SDS011;9118;48.122;11.546;2023-02-28T07:59:27;26.63;;;13.90;;
17985;SDS011;9118;48.122;11.546;2023-02-28T08:01:56;24.63;;;13.33;;
17985;SDS011;9118;48.122;11.546;2023-02-28T08:04:25;35.67;;;14.83;;
17985;SDS011;9118;48.122;11.546;2023-02-28T08:06:53;31.50;;;13.87;;
17985;SDS011;9118;48.122;11.546;2023-02-28T08:09:21;26.60;;;13.57;;
17985;SDS011;9118;48.122;11.546;2023-02-28T08:14:39;32.13;;;14.20;;
17985;SDS011;9118;48.122;11.546;2023-02-28T08:17:06;31.70;;;15.60;;
17985;SDS011;9118;48.122;11.546;2023-02-28T08:19:36;29.40;;;14.23;;
17985;SDS011;9118;48.122;11.546;2023-02-28T08:22:05;26.23;;;13.70;;
17985;SDS011;9118;48.122;11.546;2023-02-28T08:24:32;32.80;;;14.27;;
17985;SDS011;9118;48.122;11.546;2023-02-28T08:26:59;29.97;;;16.00;;
17985;SDS011;9118;48.122;11.546;2023-02-28T08:29:26;24.50;;;14.43;;
17985;SDS011;9118;48.122;11.546;2023-02-28T08:31:55;22.23;;;13.93;;
17985;SDS011;9118;48.122;11.546;2023-02-28T08:34:24;32.07;;;14.80;;
17985;SDS011;9118;48.122;11.546;2023-02-28T08:36:51;28.07;;;14.67;;
17985;SDS011;9118;48.122;11.546;2023-02-28T08:39:19;23.43;;;14.17;;
17985;SDS011;9118;48.122;11.546;2023-02-28T08:41:46;25.63;;;14.37;;
17985;SDS011;9118;48.122;11.546;2023-02-28T08:44:13;29.90;;;13.97;;
17985;SDS011;9118;48.122;11.546;2023-02-28T08:46:40;27.43;;;14.73;;
17985;SDS011;9118;48.122;11.546;2023-02-28T08:49:09;26.70;;;14.37;;
17985;SDS011;9118;48.122;11.546;2023-02-28T08:51:38;33.13;;;15.20;;
17985;SDS011;9118;48.122;11.546;2023-02-28T08:54:05;25.37;;;14.03;;
17985;SDS011;9118;48.122;11.546;2023-02-28T08:56:34;24.13;;;14.77;;
17985;SDS011;9118;48.122;11.546;2023-02-28T08:59:01;26.87;;;14.73;;
17985;SDS011;9118;48.122;11.546;2023-02-28T09:01:28;28.03;;;15.03;;
17985;SDS011;9118;48.122;11.546;2023-02-28T09:03:58;27.53;;;14.17;;
17985;SDS011;9118;48.122;11.546;2023-02-28T09:06:27;25.50;;;14.80;;
17985;SDS011;9118;48.122;11.546;2023-02-28T09:08:56;32.60;;;15.50;;
17985;SDS011;9118;48.122;11.546;2023-02-28T09:11:26;29.57;;;15.30;;
17985;SDS011;9118;48.122;11.546;2023-02-28T09:13:57;24.63;;;13.70;;
17985;SDS011;9118;48.122;11.546;2023-02-28T09:16:28;27.20;;;13.97;;
17985;SDS011;9118;48.122;11.546;2023-02-28T09:18:57;30.23;;;15.37;;
17985;SDS011;9118;48.122;11.546;2023-02-28T09:21:24;32.20;;;15.10;;
17985;SDS011;9118;48.122;11.546;2023-02-28T09:23:51;22.33;;;13.80;;
17985;SDS011;9118;48.122;11.546;2023-02-28T09:26:19;23.17;;;13.90;;
17985;SDS011;9118;48.122;11.546;2023-02-28T09:28:48;24.87;;;14.13;;
17985;SDS011;9118;48.122;11.546;2023-02-28T09:31:18;23.50;;;14.23;;
17985;SDS011;9118;48.122;11.546;2023-02-28T09:33:49;27.17;;;14.50;;
17985;SDS011;9118;48.122;11.546;2023-02-28T09:36:20;25.43;;;14.83;;
17985;SDS011;9118;48.122;11.546;2023-02-28T09:38:48;26.07;;;15.17;;
17985;SDS011;9118;48.122;11.546;2023-02-28T09:41:17;31.40;;;15.10;;
17985;SDS011;9118;48.122;11.546;2023-02-28T09:43:47;24.40;;;14.67;;
17985;SDS011;9118;48.122;11.546;2023-02-28T09:46:35;24.03;;;14.70;;
17985;SDS011;9118;48.122;11.546;2023-02-28T09:49:07;24.67;;;14.77;;
17985;SDS011;9118;48.122;11.546;2023-02-28T09:51:43;37.67;;;15.70;;
17985;SDS011;9118;48.122;11.546;2023-02-28T09:54:22;28.93;;;15.10;;
17985;SDS011;9118;48.122;11.546;2023-02-28T09:56:51;22.80;;;14.33;;
17985;SDS011;9118;48.122;11.546;2023-02-28T09:59:29;27.40;;;15.43;;
17985;SDS011;9118;48.122;11.546;2023-02-28T10:02:17;23.30;;;13.53;;
17985;SDS011;9118;48.122;11.546;2023-02-28T10:04:54;25.30;;;14.93;;
17985;SDS011;9118;48.122;11.546;2023-02-28T10:07:36;22.83;;;14.23;;
17985;SDS011;9118;48.122;11.546;2023-02-28T10:10:17;31.17;;;15.23;;
17985;SDS011;9118;48.122;11.546;2023-02-28T10:12:51;31.33;;;15.60;;
17985;SDS011;9118;48.122;11.546;2023-02-28T10:15:21;22.90;;;14.67;;
17985;SDS011;9118;48.122;11.546;2023-02-28T10:17:53;26.83;;;14.30;;
17985;SDS011;9118;48.122;11.546;2023-02-28T10:20:23;23.97;;;13.87;;
17985;SDS011;9118;48.122;11.546;2023-02-28T10:23:01;32.50;;;14.60;;
17985;SDS011;9118;48.122;11.546;2023-02-28T10:25:33;26.30;;;15.00;;
17985;SDS011;9118;48.122;11.546;2023-02-28T10:28:08;27.47;;;15.97;;
17985;SDS011;9118;48.122;11.546;2023-02-28T10:30:38;24.20;;;14.33;;
17985;SDS011;9118;48.122;11.546;2023-02-28T10:33:17;24.43;;;14.80;;
17985;SDS011;9118;48.122;11.546;2023-02-28T10:35:47;23.83;;;14.33;;
17985;SDS011;9118;48.122;11.546;2023-02-28T10:38:18;24.90;;;14.63;;
17985;SDS011;9118;48.122;11.546;2023-02-28T10:40:50;28.50;;;14.87;;
17985;SDS011;9118;48.122;11.546;2023-02-28T10:43:21;24.53;;;14.47;;
17985;SDS011;9118;48.122;11.546;2023-02-28T10:45:54;27.37;;;15.07;;
17985;SDS011;9118;48.122;11.546;2023-02-28T10:48:29;24.83;;;13.83;;
17985;SDS011;9118;48.122;11.546;2023-02-28T10:50:59;24.03;;;14.47;;
17985;SDS011;9118;48.122;11.546;2023-02-28T10:53:30;27.07;;;15.03;;
17985;SDS011;9118;48.122;11.546;2023-02-28T10:56:00;22.27;;;14.20;;
17985;SDS011;9118;48.122;11.546;2023-02-28T10:58:29;23.20;;;14.53;;
17985;SDS011;9118;48.122;11.546;2023-02-28T11:00:59;23.07;;;14.50;;
17985;SDS011;9118;48.122;11.546;2023-02-28T11:03:34;26.80;;;15.00;;
17985;SDS011;9118;48.122;11.546;2023-02-28T11:06:05;23.83;;;13.63;;
17985;SDS011;9118;48.122;11.546;2023-02-28T11:08:34;29.10;;;15.67;;
17985;SDS011;9118;48.122;11.546;2023-02-28T11:11:14;23.20;;;13.90;;
17985;SDS011;9118;48.122;11.546;2023-02-28T11:13:43;34.77;;;14.90;;
17985;SDS011;9118;48.122;11.546;2023-02-28T11:16:12;38.70;;;15.10;;
17985;SDS011;9118;48.122;11.546;2023-02-28T11:18:43;23.33;;;14.63;;
17985;SDS011;9118;48.122;11.546;2023-02-28T11:21:26;25.67;;;14.80;;
17985;SDS011;9118;48.122;11.546;2023-02-28T11:23:56;26.93;;;14.80;;
17985;SDS011;9118;48.122;11.546;2023-02-28T11:26:38;28.80;;;16.67;;
17985;SDS011;9118;48.122;11.546;2023-02-28T11:29:18;24.00;;;15.60;;
17985;SDS011;9118;48.122;11.546;2023-02-28T11:32:04;23.60;;;14.23;;
17985;SDS011;9118;48.122;11.546;2023-02-28T11:35:01;24.70;;;13.73;;
17985;SDS011;9118;48.122;11.546;2023-02-28T11:37:30;23.70;;;14.47;;
17985;SDS011;9118;48.122;11.546;2023-02-28T11:40:00;34.43;;;17.10;;
17985;SDS011;9118;48.122;11.546;2023-02-28T11:42:35;23.07;;;15.20;;
17985;SDS011;9118;48.122;11.546;2023-02-28T11:45:21;24.50;;;15.10;;
17985;SDS011;9118;48.122;11.546;2023-02-28T11:48:01;24.23;;;14.83;;
17985;SDS011;9118;48.122;11.546;2023-02-28T11:50:42;26.27;;;14.30;;
17985;SDS011;9118;48.122;11.546;2023-02-28T11:53:18;26.60;;;15.60;;
17985;SDS011;9118;48.122;11.546;2023-02-28T11:55:54;22.23;;;14.50;;
17985;SDS011;9118;48.122;11.546;2023-02-28T11:58:31;26.50;;;14.57;;
17985;SDS011;9118;48.122;11.546;2023-02-28T12:01:11;23.47;;;14.43;;
17985;SDS011;9118;48.122;11.546;2023-02-28T12:03:54;29.30;;;15.60;;
17985;SDS011;9118;48.122;11.546;2023-02-28T12:06:32;25.83;;;15.27;;
17985;SDS011;9118;48.122;11.546;2023-02-28T12:09:10;27.67;;;15.73;;
17985;SDS011;9118;48.122;11.546;2023-02-28T12:11:51;26.27;;;14.80;;
17985;SDS011;9118;48.122;11.546;2023-02-28T12:17:26;30.13;;;15.07;;
17985;SDS011;9118;48.122;11.546;2023-02-28T12:20:05;23.80;;;15.53;;
17985;SDS011;9118;48.122;11.546;2023-02-28T12:22:58;20.53;;;14.27;;
17985;SDS011;9118;48.122;11.546;2023-02-28T12:28:53;20.40;;;14.50;;
17985;SDS011;9118;48.122;11.546;2023-02-28T12:31:40;23.60;;;14.47;;
17985;SDS011;9118;48.122;11.546;2023-02-28T12:34:12;24.80;;;14.50;;
17985;SDS011;9118;48.122;11.546;2023-02-28T12:36:42;24.83;;;14.57;;
17985;SDS011;9118;48.122;11.546;2023-02-28T12:39:14;23.50;;;14.30;;
17985;SDS011;9118;48.122;11.546;2023-02-28T12:41:51;24.13;;;14.07;;
17985;SDS011;9118;48.122;11.546;2023-02-28T12:44:42;21.73;;;14.00;;
17985;SDS011;9118;48.122;11.546;2023-02-28T12:47:15;28.63;;;14.00;;
17985;SDS011;9118;48.122;11.546;2023-02-28T12:49:47;19.77;;;13.13;;
17985;SDS011;9118;48.122;11.546;2023-02-28T12:52:22;22.20;;;14.30;;
17985;SDS011;9118;48.122;11.546;2023-02-28T12:54:58;26.47;;;14.20;;
17985;SDS011;9118;48.122;11.546;2023-02-28T12:57:34;23.53;;;13.90;;
17985;SDS011;9118;48.122;11.546;2023-02-28T13:00:10;33.87;;;18.97;;
17985;SDS011;9118;48.122;11.546;2023-02-28T13:02:52;22.83;;;14.23;;
17985;SDS011;9118;48.122;11.546;2023-02-28T13:05:39;25.90;;;13.43;;
17985;SDS011;9118;48.122;11.546;2023-02-28T13:08:32;21.90;;;14.60;;
17985;SDS011;9118;48.122;11.546;2023-02-28T13:11:25;22.87;;;13.87;;
17985;SDS011;9118;48.122;11.546;2023-02-28T13:13:59;21.50;;;16.23;;
17985;SDS011;9118;48.122;11.546;2023-02-28T13:16:28;36.23;;;14.47;;
17985;SDS011;9118;48.122;11.546;2023-02-28T13:19:33;20.20;;;12.43;;
17985;SDS011;9118;48.122;11.546;2023-02-28T13:22:03;20.40;;;13.13;;
17985;SDS011;9118;48.122;11.546;2023-02-28T13:24:38;23.27;;;12.90;;
17985;SDS011;9118;48.122;11.546;2023-02-28T13:27:22;22.90;;;14.40;;
17985;SDS011;9118;48.122;11.546;2023-02-28T13:29:57;22.63;;;13.33;;
17985;SDS011;9118;48.122;11.546;2023-02-28T13:44:10;21.30;;;13.50;;
17985;SDS011;9118;48.122;11.546;2023-02-28T13:49:37;22.83;;;13.00;;
17985;SDS011;9118;48.122;11.546;2023-02-28T13:52:07;22.10;;;13.77;;
17985;SDS011;9118;48.122;11.546;2023-02-28T13:54:44;21.63;;;14.37;;
17985;SDS011;9118;48.122;11.546;2023-02-28T13:57:44;24.07;;;13.30;;
17985;SDS011;9118;48.122;11.546;2023-02-28T14:00:28;20.67;;;12.97;;
17985;SDS011;9118;48.122;11.546;2023-02-28T14:03:10;23.90;;;13.87;;
17985;SDS011;9118;48.122;11.546;2023-02-28T14:05:45;24.60;;;14.67;;
17985;SDS011;9118;48.122;11.546;2023-02-28T14:08:14;18.90;;;12.13;;
17985;SDS011;9118;48.122;11.546;2023-02-28T14:10:47;19.77;;;12.83;;
17985;SDS011;9118;48.122;11.546;2023-02-28T14:16:11;23.63;;;13.30;;
17985;SDS011;9118;48.122;11.546;2023-02-28T14:18:41;21.30;;;13.57;;
17985;SDS011;9118;48.122;11.546;2023-02-28T14:21:16;26.87;;;15.57;;
17985;SDS011;9118;48.122;11.546;2023-02-28T14:27:11;21.20;;;13.17;;
17985;SDS011;9118;48.122;11.546;2023-02-28T14:30:12;20.17;;;13.33;;
17985;SDS011;9118;48.122;11.546;2023-02-28T14:33:13;21.57;;;13.47;;
17985;SDS011;9118;48.122;11.546;2023-02-28T14:35:56;25.30;;;13.03;;
17985;SDS011;9118;48.122;11.546;2023-02-28T14:38:40;20.10;;;12.90;;
17985;SDS011;9118;48.122;11.546;2023-02-28T14:41:16;20.17;;;12.37;;
17985;SDS011;9118;48.122;11.546;2023-02-28T14:43:50;19.63;;;12.53;;
17985;SDS011;9118;48.122;11.546;2023-02-28T14:46:19;26.20;;;12.93;;
17985;SDS011;9118;48.122;11.546;2023-02-28T14:48:49;26.80;;;16.73;;
17985;SDS011;9118;48.122;11.546;2023-02-28T14:51:20;23.07;;;12.63;;
17985;SDS011;9118;48.122;11.546;2023-02-28T14:53:56;23.43;;;11.83;;
17985;SDS011;9118;48.122;11.546;2023-02-28T14:56:26;26.63;;;13.30;;
17985;SDS011;9118;48.122;11.546;2023-02-28T14:58:56;22.83;;;12.97;;
17985;SDS011;9118;48.122;11.546;2023-02-28T15:01:24;19.03;;;12.40;;
17985;SDS011;9118;48.122;11.546;2023-02-28T15:04:01;21.00;;;12.33;;
17985;SDS011;9118;48.122;11.546;2023-02-28T15:06:30;27.33;;;13.43;;
17985;SDS011;9118;48.122;11.546;2023-02-28T15:09:07;20.77;;;13.17;;
17985;SDS011;9118;48.122;11.546;2023-02-28T15:11:36;32.60;;;17.53;;
17985;SDS011;9118;48.122;11.546;2023-02-28T15:14:05;22.10;;;13.33;;
17985;SDS011;9118;48.122;11.546;2023-02-28T15:16:33;23.53;;;13.73;;
17985;SDS011;9118;48.122;11.546;2023-02-28T15:19:07;24.03;;;14.10;;
17985;SDS011;9118;48.122;11.546;2023-02-28T15:21:41;22.07;;;13.10;;
17985;SDS011;9118;48.122;11.546;2023-02-28T15:24:12;22.27;;;12.17;;
17985;SDS011;9118;48.122;11.546;2023-02-28T15:26:49;21.40;;;12.70;;
17985;SDS011;9118;48.122;11.546;2023-02-28T15:29:20;21.50;;;12.60;;